• Join FlightAware (Why Join?)
  • Login
  • US Flag 
09:02AM EDT


 

Airport Tracker/Info


-or-


 

Live Flight TrackerFlight Track Log ✈ N6619C ✈ 15-Jun-2013 ✈ KPLN - KMGY

Flight Track Log - Related Links

Times and Time Zones

All times are in EDT time to prevent confusion due to time zone crossing. See the N6619C flight status page for this flight to view local times or setup timezone preferences in your user account.

Time Position Orientation Groundspeed Altitude Reporting Facility
EDT Latitude Longitude Course Direction KTS MPH feet Rate Location/Type
03:46PM 45.4769 -84.7922 176° South 121 139 3,300  Level Minneapolis Center
03:47PM 45.4422 -84.7900 177° South 125 144 3,800 420 Climbing Minneapolis Center
03:48PM 45.4047 -84.7864 176° South 125 144 4,300 480 Climbing Minneapolis Center
03:49PM 45.3606 -84.7828 177° South 129 148 4,900 480 Climbing Minneapolis Center
03:50PM 45.3244 -84.7797 177° South 132 152 5,400 480 Climbing Minneapolis Center
03:51PM 45.2864 -84.7767 177° South 128 147 5,900 420 Climbing Minneapolis Center
03:52PM 45.2993 -84.7684 176° South  Level FlightAware Approximate
03:52PM 45.2497 -84.7736 177° South 133 153 6,300  Level Minneapolis Center
03:53PM 45.2097 -84.7703 177° South 135 155 6,800 420 Climbing Minneapolis Center
03:54PM 45.1736 -84.7678 177° South 133 153 7,200 420 Climbing Minneapolis Center
03:55PM 45.1381 -84.7650 177° South 131 151 7,700 480 Climbing Minneapolis Center
03:57PM 45.0989 -84.7608 176° South 131 151 8,200 420 Climbing Minneapolis Center
03:58PM 45.0639 -84.7578 176° South 129 148 8,600 420 Climbing Minneapolis Center
03:59PM 45.0275 -84.7550 177° South 123 142 9,100 240 Climbing Minneapolis Center
04:00PM 44.9911 -84.7533 178° South 132 152 9,100  Level Minneapolis Center
04:01PM 44.9483 -84.7489 176° South 151 174 9,100  Level Minneapolis Center
04:02PM 44.9025 -84.7456 177° South 155 178 9,100  Level Minneapolis Center
04:03PM 44.8597 -84.7428 177° South 154 177 9,100  Level Minneapolis Center
04:04PM 44.8128 -84.7381 176° South 157 181 9,100  Level Minneapolis Center
04:05PM 44.7708 -84.7347 177° South 153 176 9,100  Level Minneapolis Center
04:06PM 44.7278 -84.7311 177° South 153 176 9,100  Level Minneapolis Center
04:07PM 44.6817 -84.7256 175° South 158 182 9,100  Level Minneapolis Center
04:08PM 44.6375 -84.7233 178° South 160 184 9,100  Level Minneapolis Center
04:09PM 44.5947 -84.7225 179° South 157 181 9,100  Level Minneapolis Center
04:10PM 44.5517 -84.7172 175° South 155 178 9,100  Level Minneapolis Center
04:11PM 44.5081 -84.7153 178° South 156 180 9,100  Level Minneapolis Center
04:12PM 44.4650 -84.7117 177° South 155 178 9,100  Level Minneapolis Center
04:13PM 44.4119 -84.7069 176° South 158 182 9,100  Level Minneapolis Center
04:14PM 44.3678 -84.7050 178° South 158 182 9,100  Level Minneapolis Center
04:15PM 44.3244 -84.7014 177° South 157 181 9,100  Level Minneapolis Center
04:16PM 44.2792 -84.6981 177° South 160 184 9,100  Level Minneapolis Center
04:17PM 44.2342 -84.6944 177° South 161 185 9,200  Climbing Minneapolis Center
04:18PM 44.1883 -84.6903 176° South 164 189 9,200  Level Minneapolis Center
04:19PM 44.1425 -84.6872 177° South 165 190 9,200  Level Minneapolis Center
04:20PM 44.0981 -84.6833 176° South 162 186 9,200  Level Minneapolis Center
04:21PM 44.0508 -84.6803 177° South 166 191 9,200 -60 Level Minneapolis Center
04:22PM 43.9969 -84.6767 177° South 163 188 9,100 -60 Descending Minneapolis Center
04:23PM 43.9569 -84.6742 177° South 163 188 9,100  Level Minneapolis Center
04:24PM 43.9094 -84.6694 176° South 168 193 9,100  Level Minneapolis Center
04:25PM 43.8653 -84.6661 177° South 162 186 9,100  Level Minneapolis Center
04:26PM 43.8111 -84.6622 177° South 162 186 9,100  Level Minneapolis Center
04:27PM 43.7664 -84.6586 177° South 161 185 9,100  Level Minneapolis Center
04:28PM 43.7219 -84.6564 178° South 161 185 9,100  Level Minneapolis Center
04:29PM 43.6856 -84.6519 175° South 163 188 9,100  Level Minneapolis Center
04:30PM 43.6300 -84.6486 178° South 165 190 9,100  Level Minneapolis Center
04:31PM 43.5858 -84.6456 177° South 162 186 9,100  Level Minneapolis Center
04:32PM 43.5411 -84.6425 177° South 161 185 9,100  Level Minneapolis Center
04:34PM 43.4909 -84.6478 184° South  Level FlightAware Approximate
04:41PM 43.1806 -84.6802 184° South  Level FlightAware Approximate
04:42PM 43.1352 -84.6833 180° South  Level FlightAware Approximate
04:43PM 43.0907 -84.6833 180° South  Level FlightAware Approximate
04:44PM 43.0463 -84.6833 180° South  Level FlightAware Approximate
04:45PM 43.0018 -84.6833 180° South  Level FlightAware Approximate
04:46PM 42.9574 -84.6833 180° South  Level FlightAware Approximate
04:47PM 42.9129 -84.6833 180° South  Level FlightAware Approximate
04:48PM 42.8685 -84.6833 180° South  Level FlightAware Approximate
04:49PM 42.8240 -84.6833 180° South  Level FlightAware Approximate
04:50PM 42.7796 -84.6833 180° South  Level FlightAware Approximate
04:51PM 42.7351 -84.6833 180° South  Level FlightAware Approximate
04:52PM 42.6908 -84.6794 174° South  Level FlightAware Approximate
04:53PM 42.6466 -84.6728 174° South  Level FlightAware Approximate
04:54PM 42.6025 -84.6662 174° South  Level FlightAware Approximate
04:55PM 42.5583 -84.6595 174° South  Level FlightAware Approximate
04:56PM 42.5141 -84.6529 174° South  Level FlightAware Approximate
04:57PM 42.4699 -84.6463 174° South  Level FlightAware Approximate
04:58PM 42.4257 -84.6397 174° South  Level FlightAware Approximate
04:59PM 42.3816 -84.6331 174° South  Level FlightAware Approximate
05:00PM 42.3374 -84.6264 174° South  Level FlightAware Approximate
05:00PM 42.3131 -84.5672 174° South 163 188 9,100  Level Chicago Center
05:01PM 42.2932 -84.6198 174° South  Level FlightAware Approximate
05:01PM 42.2694 -84.5608 174° South 160 184 9,100  Level Chicago Center
05:02PM 42.2490 -84.6131 174° South  Level FlightAware Approximate
05:02PM 42.2172 -84.5536 174° South 162 186 9,100  Level Chicago Center
05:03PM 42.2048 -84.6065 174° South  Level FlightAware Approximate
05:03PM 42.1731 -84.5481 175° South 160 184 9,100  Level Chicago Center
05:04PM 42.1607 -84.5999 174° South  Level FlightAware Approximate
05:04PM 42.1289 -84.5428 175° South 160 184 9,100  Level Chicago Center
05:05PM 42.1165 -84.5933 174° South  Level FlightAware Approximate
05:05PM 42.0822 -84.5361 174° South 161 185 9,100  Level Chicago Center
05:06PM 42.0375 -84.5303 174° South 161 185 9,100  Level Chicago Center
05:07PM 41.9931 -84.5256 175° South 161 185 9,100  Level Chicago Center
05:08PM 41.9419 -84.5186 174° South 159 183 9,100  Level Chicago Center
05:09PM 41.8986 -84.5125 174° South 157 181 9,100  Level Chicago Center
05:10PM 41.8547 -84.5072 175° South 158 182 9,100  Level Chicago Center
05:11PM 41.8108 -84.5011 174° South 158 182 9,100  Level Chicago Center
05:12PM 41.7672 -84.4961 175° South 157 181 9,100  Level Chicago Center
05:13PM 41.7233 -84.4894 174° South 158 182 9,100  Level Chicago Center
05:14PM 41.6797 -84.4836 174° South 157 181 9,100  Level Chicago Center
05:15PM 41.6347 -84.4789 176° South 160 184 9,100  Level Chicago Center
05:16PM 41.5825 -84.4708 173° South 158 182 9,100  Level Chicago Center
05:17PM 41.5389 -84.4653 175° South 156 180 9,100  Level Chicago Center
05:18PM 41.4950 -84.4606 175° South 158 182 9,100  Level Chicago Center
05:19PM 41.4508 -84.4542 174° South 158 182 9,100  Level Chicago Center
05:20PM 41.4064 -84.4486 175° South 159 183 9,100  Level Chicago Center
05:21PM 41.3617 -84.4431 175° South 160 184 9,100  Level Chicago Center
05:22PM 41.3167 -84.4367 174° South 161 185 9,100  Level Chicago Center
05:23PM 41.2728 -84.4314 175° South 160 184 9,100  Level Chicago Center
05:24PM 41.2200 -84.4239 174° South 159 183 9,100  Level Chicago Center
05:25PM 41.1756 -84.4186 175° South 160 184 9,100  Level Chicago Center
05:27PM 41.1303 -84.4131 175° South 160 184 9,100  Level Chicago Center
05:28PM 41.0856 -84.4069 174° South 162 186 9,100  Level Chicago Center
05:29PM 41.0408 -84.4028 176° South 162 186 9,100  Level Chicago Center
05:30PM 40.9972 -84.3961 173° South 160 184 9,100  Level Chicago Center
05:31PM 40.9511 -84.3897 174° South 162 186 9,100  Level Chicago Center
05:32PM 40.8981 -84.3839 175° South 161 185 9,100  Level Chicago Center
05:33PM 40.8428 -84.3786 176° South 161 185 9,100  Level Indianapolis Center
05:34PM 40.7983 -84.3736 175° South 160 184 9,100  Level Indianapolis Center
05:35PM 40.7536 -84.3672 174° South 160 184 9,100  Level Indianapolis Center
05:36PM 40.7147 -84.3628 175° South 158 182 9,100  Level Indianapolis Center
05:36PM 40.7097 -84.3622 175° South 158 182 9,100 -120 Level Indianapolis Center
05:37PM 40.6675 -84.3536 171° South 161 185 9,000 -300 Descending Indianapolis Center
05:38PM 40.6236 -84.3503 177° South 164 189 8,600 -540 Descending Indianapolis Center
05:38PM 40.6094 -84.3489 176° South 167 192 8,400 -600 Descending Indianapolis Center
05:39PM 40.5778 -84.3469 177° South 167 192 8,000 -540 Descending Indianapolis Center
05:39PM 40.5628 -84.3433 170° South 168 193 7,900 -540 Descending Indianapolis Center
05:40PM 40.5322 -84.3406 176° South 164 189 7,500 -600 Descending Indianapolis Center
05:40PM 40.5186 -84.3378 171° South 161 185 7,300 -600 Descending Indianapolis Center
05:41PM 40.4844 -84.3342 175° South 161 185 6,900 -600 Descending Indianapolis Center
05:41PM 40.4733 -84.3331 176° South 162 186 6,700 -600 Descending Indianapolis Center
05:42PM 40.4408 -84.3283 174° South 159 183 6,300 -540 Descending Indianapolis Center
05:42PM 40.4303 -84.3269 174° South 158 182 6,200 -300 Descending Indianapolis Center
05:43PM 40.3975 -84.3222 174° South 154 177 6,000 -240 Descending Indianapolis Center
05:43PM 40.3881 -84.3206 172° South 154 177 6,000  Level Indianapolis Center
05:44PM 40.3622 -84.3175 175° South 146 168 6,000  Level Indianapolis Center
05:44PM 40.3469 -84.3169 178° South 150 173 6,000  Level Indianapolis Center
05:45PM 40.3206 -84.3147 176° South 145 167 6,000  Level Indianapolis Center
05:45PM 40.3056 -84.3119 172° South 148 170 6,000  Level Indianapolis Center
05:46PM 40.2811 -84.3094 176° South 145 167 6,000  Level Indianapolis Center
05:46PM 40.2658 -84.3064 171° South 146 168 6,000  Level Indianapolis Center
05:47PM 40.2397 -84.3036 175° South 145 167 6,000  Level Indianapolis Center
05:47PM 40.2253 -84.3017 174° South 145 167 6,000  Level Indianapolis Center
05:48PM 40.1939 -84.2975 174° South 145 167 6,000  Level Indianapolis Center
05:48PM 40.1778 -84.2956 175° South 145 167 6,000  Level Indianapolis Center
05:49PM 40.1547 -84.2922 174° South 146 168 6,000  Level Indianapolis Center
05:49PM 40.1364 -84.2914 178° South 144 166 6,000  Level Indianapolis Center
05:50PM 40.1067 -84.2886 176° South 148 170 6,000  Level Indianapolis Center
05:50PM 40.0950 -84.2856 169° South 148 170 6,000  Level Indianapolis Center
05:51PM 40.0653 -84.2831 176° South 149 171 6,000  Level Indianapolis Center
05:51PM 40.0528 -84.2814 174° South 149 171 6,000  Level Indianapolis Center
05:52PM 40.0236 -84.2775 174° South 149 171 6,000  Level Indianapolis Center
05:52PM 40.0119 -84.2753 172° South 148 170 6,000  Level Indianapolis Center
05:53PM 39.9822 -84.2719 175° South 150 173 6,000  Level Indianapolis Center
05:54PM 39.9700 -84.2714 178° South 149 171 6,000  Level Indianapolis Center
05:54PM 39.9344 -84.2656 173° South 151 174 6,000  Level Indianapolis Center
05:55PM 39.9269 -84.2647 175° South 151 174 6,000  Level Indianapolis Center
05:55PM 39.8928 -84.2625 177° South 151 174 6,000  Level Indianapolis Center
05:56PM 39.8853 -84.2606 169° South 151 174 6,000  Level Indianapolis Center
05:56PM 39.8514 -84.2569 175° South 152 175 6,000  Level Indianapolis Center
05:57PM 39.8422 -84.2544 168° South 152 175 6,000  Level Indianapolis Center
05:57PM 39.8119 -84.2519 176° South 151 174 6,000  Level Indianapolis Center
05:58PM 39.7936 -84.2483 171° South 151 174 6,000  Level Indianapolis Center
05:58PM 39.7683 -84.2461 176° South 149 171 6,000 -240 Level Indianapolis Center
05:59PM 39.7508 -84.2442 175° South 152 175 5,800 -540 Descending Indianapolis Center
05:59PM 39.7208 -84.2397 173° South 158 182 5,400 -720 Descending Indianapolis Center
06:00PM 39.7069 -84.2383 176° South 155 178 5,100 -780 Descending Indianapolis Center
06:00PM 39.6811 -84.2372 178° South 159 183 4,700 -720 Descending Indianapolis Center
06:01PM 39.6636 -84.2381 182° South 155 178 4,400 -660 Descending Indianapolis Center
06:03PM 39.5859 -84.2167 180° South  Level FlightAware Approximate
06:10PM 39.5833 -84.2167 180° South  Level FlightAware Approximate
06:11PM 39.5890 -84.2249 180° South  Level Estimated